Time;durP1;ratioP1;P1;durP2;ratioP2;P2;SDS_P1;SDS_P2;PMS_P1;PMS_P2;Temp;Humidity;BMP_temperature;BMP_pressure;BME280_temperature;BME280_humidity;BME280_pressure;Samples;Min_cycle;Max_cycle;Signal;HPM_P1;HPM_P2
2022/01/18 00:00:18;;;;;;;14.67;8.87;;;;;;;3.42;100.00;100170.66;4789228;29;20298;-52
2022/01/18 00:02:45;;;;;;;13.60;8.20;;;;;;;3.43;100.00;100172.34;4789408;29;20633;-54
2022/01/18 00:05:14;;;;;;;15.63;9.00;;;;;;;3.31;100.00;100170.69;4789457;29;20114;-55
2022/01/18 00:07:44;;;;;;;14.73;8.87;;;;;;;3.32;100.00;100182.94;4789132;29;20287;-55
2022/01/18 00:10:11;;;;;;;14.37;8.27;;;;;;;3.41;100.00;100193.59;4789126;29;20278;-55
2022/01/18 00:23:21;;;;;;;12.43;7.73;;;;;;;3.47;100.00;100198.38;4789052;29;20322;-56
2022/01/18 00:25:50;;;;;;;14.17;8.73;;;;;;;3.37;100.00;100205.38;4788756;29;20276;-50
2022/01/18 00:28:17;;;;;;;13.47;7.83;;;;;;;3.47;100.00;100206.28;4789006;29;20284;-53
2022/01/18 00:33:43;;;;;;;12.53;8.07;;;;;;;3.47;100.00;100213.38;4788652;29;20316;-54
2022/01/18 00:36:22;;;;;;;13.73;8.27;;;;;;;3.41;100.00;100227.09;4788728;29;20739;-54
2022/01/18 00:38:48;;;;;;;12.97;7.80;;;;;;;3.48;100.00;100220.34;4788564;29;20284;-53
2022/01/18 00:41:16;;;;;;;13.57;8.40;;;;;;;3.60;100.00;100224.63;4788499;29;20280;-54
2022/01/18 00:43:44;;;;;;;14.13;8.87;;;;;;;3.49;100.00;100217.59;4788388;29;20114;-56
2022/01/18 00:46:12;;;;;;;14.43;8.20;;;;;;;3.49;100.00;100228.16;4788396;29;20370;-55
2022/01/18 00:48:39;;;;;;;13.90;8.37;;;;;;;3.52;100.00;100240.28;4788245;29;20286;-54
2022/01/18 00:51:08;;;;;;;15.50;8.73;;;;;;;3.63;100.00;100237.59;4788364;29;20309;-52
2022/01/18 00:53:36;;;;;;;12.93;8.43;;;;;;;3.44;100.00;100248.00;4788044;29;20333;-55
2022/01/18 00:58:31;;;;;;;14.80;8.50;;;;;;;3.45;100.00;100255.81;4787980;29;20263;-53
2022/01/18 01:00:56;;;;;;;13.87;9.10;;;;;;;3.45;100.00;100247.03;4787045;30;20294;-53
2022/01/18 01:03:22;;;;;;;14.13;8.47;;;;;;;3.48;100.00;100236.19;4788101;29;20035;-54
2022/01/18 01:05:48;;;;;;;17.53;9.20;;;;;;;3.45;100.00;100247.88;4788232;29;20034;-53
2022/01/18 01:08:14;;;;;;;15.30;9.07;;;;;;;3.49;100.00;100251.09;4788087;29;20110;-52
2022/01/18 01:10:39;;;;;;;15.73;9.10;;;;;;;3.50;100.00;100244.84;4788120;29;20137;-50
2022/01/18 01:13:05;;;;;;;14.43;8.57;;;;;;;3.48;100.00;100252.06;4788043;29;20399;-53
2022/01/18 01:15:36;;;;;;;13.97;8.60;;;;;;;3.49;100.00;100241.38;4788070;29;20041;-48
2022/01/18 01:18:29;;;;;;;14.43;9.20;;;;;;;3.48;100.00;100260.81;4787827;29;20311;-54
2022/01/18 01:45:31;;;;;;;17.80;9.80;;;;;;;3.49;100.00;100274.88;4787538;30;20325;-53
2022/01/18 01:47:59;;;;;;;15.50;9.23;;;;;;;3.40;100.00;100268.53;4787348;29;20661;-52
2022/01/18 01:50:29;;;;;;;14.97;9.57;;;;;;;3.48;100.00;100263.47;4787577;29;20816;-53
2022/01/18 01:52:56;;;;;;;16.13;9.50;;;;;;;3.44;100.00;100263.84;4787039;29;20310;-52
2022/01/18 01:55:24;;;;;;;15.63;9.80;;;;;;;3.42;100.00;100265.78;4787280;29;20283;-52
2022/01/18 01:57:49;;;;;;;16.70;9.40;;;;;;;3.39;100.00;100261.56;4787245;29;20634;-51
2022/01/18 02:00:18;;;;;;;17.70;9.90;;;;;;;3.44;100.00;100251.50;4787086;29;20276;-54
2022/01/18 02:02:47;;;;;;;17.40;9.70;;;;;;;3.53;100.00;100258.66;4787137;29;20043;-55
2022/01/18 02:05:13;;;;;;;17.37;10.40;;;;;;;3.49;100.00;100256.38;4787020;29;20332;-55
2022/01/18 02:07:38;;;;;;;17.67;9.37;;;;;;;3.43;100.00;100263.03;4787075;29;20841;-54
2022/01/18 02:10:07;;;;;;;17.20;10.60;;;;;;;3.38;100.00;100264.34;4786394;29;20027;-52
2022/01/18 02:12:39;;;;;;;18.60;10.00;;;;;;;3.32;100.00;100263.03;4785911;29;20100;-53
2022/01/18 02:15:17;;;;;;;17.60;9.80;;;;;;;3.20;100.00;100269.31;4786924;29;20287;-55
2022/01/18 02:23:26;;;;;;;15.37;9.63;;;;;;;3.33;100.00;100251.50;4786601;29;20428;-54
2022/01/18 02:25:52;;;;;;;15.83;9.43;;;;;;;3.34;100.00;100249.72;4786833;29;20278;-56
2022/01/18 02:28:19;;;;;;;15.27;9.37;;;;;;;3.11;100.00;100243.63;4786840;29;20279;-52
2022/01/18 02:30:45;;;;;;;17.17;9.17;;;;;;;3.07;100.00;100243.03;4786743;29;20039;-51
2022/01/18 02:33:12;;;;;;;16.70;9.43;;;;;;;3.13;100.00;100244.31;4786605;29;20283;-52
2022/01/18 02:35:38;;;;;;;15.40;8.67;;;;;;;3.20;100.00;100248.16;4786627;29;20271;-54
2022/01/18 02:38:04;;;;;;;16.50;9.33;;;;;;;3.23;100.00;100240.81;4786478;29;20354;-53
2022/01/18 02:40:31;;;;;;;14.20;8.20;;;;;;;3.30;100.00;100243.00;4786515;29;20035;-54
2022/01/18 02:43:01;;;;;;;15.80;8.57;;;;;;;3.27;100.00;100246.72;4785215;29;20362;-54
2022/01/18 02:45:27;;;;;;;13.20;8.07;;;;;;;3.17;100.00;100248.41;4784880;30;20283;-54
2022/01/18 02:47:54;;;;;;;15.23;8.37;;;;;;;3.35;100.00;100244.28;4786546;29;20291;-54
2022/01/18 02:50:22;;;;;;;14.57;7.93;;;;;;;3.15;100.00;100248.53;4786375;29;20307;-55
2022/01/18 02:52:47;;;;;;;12.10;7.00;;;;;;;3.24;100.00;100246.94;4786139;29;20276;-55
2022/01/18 02:55:14;;;;;;;13.40;7.43;;;;;;;3.29;100.00;100244.78;4786336;29;20306;-48
2022/01/18 02:57:54;;;;;;;13.43;7.43;;;;;;;3.21;100.00;100239.28;4786411;29;20549;-56
2022/01/18 03:03:17;;;;;;;16.20;7.77;;;;;;;3.33;100.00;100248.03;4778448;29;20279;-55
2022/01/18 03:05:44;;;;;;;13.07;7.10;;;;;;;3.20;100.00;100262.22;4786212;29;20306;-53
2022/01/18 03:08:11;;;;;;;14.47;6.40;;;;;;;3.24;100.00;100268.91;4786048;29;20374;-51
2022/01/18 03:10:38;;;;;;;9.90;5.87;;;;;;;3.24;100.00;100283.94;4786114;29;20335;-51
2022/01/18 03:13:05;;;;;;;13.10;7.00;;;;;;;3.20;100.00;100293.91;4786073;29;20303;-52
2022/01/18 03:15:32;;;;;;;12.60;7.07;;;;;;;3.42;100.00;100277.19;4786157;29;20810;-54
2022/01/18 03:17:58;;;;;;;13.70;6.70;;;;;;;3.34;100.00;100282.25;4786106;29;20401;-51
2022/01/18 03:20:23;;;;;;;11.43;7.00;;;;;;;3.24;100.00;100281.28;4786064;29;20370;-52
2022/01/18 03:22:50;;;;;;;13.03;7.10;;;;;;;3.30;100.00;100286.09;4788803;29;20039;-55
2022/01/18 03:25:29;;;;;;;12.10;6.30;;;;;;;3.32;100.00;100288.63;4788476;30;20039;-51
2022/01/18 03:28:04;;;;;;;14.20;6.23;;;;;;;3.35;100.00;100306.84;4789562;29;20704;-54
2022/01/18 03:30:39;;;;;;;12.60;6.77;;;;;;;3.43;100.00;100307.94;4789824;29;20279;-54
2022/01/18 03:33:06;;;;;;;12.00;6.73;;;;;;;3.32;100.00;100302.66;4789644;29;20805;-53
2022/01/18 03:35:33;;;;;;;12.13;6.60;;;;;;;3.32;100.00;100305.31;4789659;29;20275;-52
2022/01/18 03:37:59;;;;;;;12.67;6.90;;;;;;;3.33;100.00;100300.88;4789587;29;20255;-53
2022/01/18 03:40:25;;;;;;;13.27;7.43;;;;;;;3.26;100.00;100303.97;4789734;29;20350;-52
2022/01/18 03:42:52;;;;;;;12.53;7.20;;;;;;;3.35;100.00;100310.31;4789776;29;20455;-54
2022/01/18 03:45:28;;;;;;;13.00;7.23;;;;;;;3.26;100.00;100305.78;4789198;29;20279;-55
2022/01/18 03:47:57;;;;;;;13.10;7.00;;;;;;;3.23;100.00;100306.84;4789051;29;20279;-55
2022/01/18 03:50:23;;;;;;;14.60;7.07;;;;;;;3.31;100.00;100313.34;4789060;29;20279;-54
2022/01/18 03:52:48;;;;;;;13.20;7.33;;;;;;;3.17;100.00;100323.19;4788844;29;20390;-53
2022/01/18 03:55:18;;;;;;;13.97;7.13;;;;;;;3.26;100.00;100311.06;4789160;29;20291;-52
2022/01/18 03:57:44;;;;;;;13.10;7.63;;;;;;;3.24;100.00;100312.97;4789261;29;20027;-55
2022/01/18 04:00:19;;;;;;;13.77;7.50;;;;;;;3.21;100.00;100308.81;4788968;29;20608;-55
2022/01/18 04:02:46;;;;;;;13.77;7.40;;;;;;;3.17;100.00;100310.00;4788930;29;20750;-53
2022/01/18 04:05:13;;;;;;;16.10;7.40;;;;;;;3.16;100.00;100307.47;4788864;29;20688;-54
2022/01/18 04:07:39;;;;;;;13.90;7.60;;;;;;;3.07;100.00;100324.88;4788797;29;20388;-53
2022/01/18 04:10:06;;;;;;;14.87;7.43;;;;;;;3.18;100.00;100322.25;4788892;29;20309;-54
2022/01/18 04:12:34;;;;;;;14.07;7.40;;;;;;;3.17;100.00;100325.84;4789063;29;20676;-55
2022/01/18 04:15:04;;;;;;;15.53;7.20;;;;;;;3.15;100.00;100333.03;4789117;29;20372;-54
2022/01/18 04:17:46;;;;;;;12.30;7.00;;;;;;;3.26;100.00;100334.84;4788949;29;20279;-52
2022/01/18 04:26:03;;;;;;;16.50;7.67;;;;;;;2.87;100.00;100326.44;4788653;30;20331;-56
2022/01/18 04:28:42;;;;;;;15.37;7.60;;;;;;;2.82;100.00;100327.75;4787364;30;20295;-56
2022/01/18 04:31:10;;;;;;;15.17;7.70;;;;;;;2.80;100.00;100330.50;4788497;29;20328;-55
2022/01/18 04:33:38;;;;;;;15.10;8.20;;;;;;;2.76;100.00;100333.50;4787813;29;20350;-53
2022/01/18 04:36:08;;;;;;;18.07;8.03;;;;;;;2.73;100.00;100336.38;4787405;30;20342;-53
2022/01/18 04:38:35;;;;;;;16.70;7.87;;;;;;;2.59;100.00;100329.50;4788436;29;20305;-55
2022/01/18 04:41:06;;;;;;;17.53;7.93;;;;;;;2.40;100.00;100331.84;4788413;29;20378;-55
2022/01/18 04:48:52;;;;;;;;;;;;;;;2.33;100.00;100341.16;4788541;30;20306;-52
2022/01/18 04:51:17;;;;;;;18.63;9.40;;;;;;;2.26;100.00;100350.50;4788095;29;20372;-54
2022/01/18 04:53:52;;;;;;;20.30;9.77;;;;;;;2.14;100.00;100353.09;4786785;29;20687;-54
2022/01/18 04:56:27;;;;;;;18.53;8.67;;;;;;;1.98;100.00;100356.97;4787961;29;20039;-54
2022/01/18 04:58:53;;;;;;;20.80;9.93;;;;;;;2.00;100.00;100355.91;4787899;29;20272;-55
2022/01/18 05:01:18;;;;;;;19.27;9.17;;;;;;;1.78;100.00;100364.53;4787904;29;20635;-55
2022/01/18 05:03:44;;;;;;;26.07;10.67;;;;;;;1.65;100.00;100365.50;4786656;29;20035;-54
2022/01/18 05:06:13;;;;;;;19.63;9.97;;;;;;;1.49;100.00;100360.53;4787801;30;20035;-53
2022/01/18 05:08:39;;;;;;;22.43;9.97;;;;;;;1.32;100.00;100368.75;4787857;29;20034;-49
2022/01/18 05:11:07;;;;;;;26.07;11.33;;;;;;;1.16;100.00;100379.50;4788028;29;20680;-54
2022/01/18 05:23:33;;;;;;;22.73;10.77;;;;;;;0.74;100.00;100401.72;4787932;29;20039;-52
2022/01/18 05:25:58;;;;;;;23.90;10.13;;;;;;;0.67;100.00;100403.94;4787775;29;20263;-52
2022/01/18 05:28:24;;;;;;;25.63;10.73;;;;;;;0.59;100.00;100408.84;4787657;29;20035;-55
2022/01/18 05:30:50;;;;;;;24.90;11.10;;;;;;;0.57;100.00;100407.28;4787670;29;20038;-55
2022/01/18 05:33:18;;;;;;;31.93;12.53;;;;;;;0.51;100.00;100411.13;4787831;29;20035;-55
2022/01/18 05:35:44;;;;;;;30.38;11.32;;;;;;;0.34;100.00;100407.00;4787818;29;20690;-55
2022/01/18 05:38:10;;;;;;;29.57;11.77;;;;;;;0.29;100.00;100413.50;4787567;29;20031;-53
2022/01/18 05:40:37;;;;;;;26.93;11.93;;;;;;;0.14;100.00;100409.22;4787590;30;20813;-55
2022/01/18 05:43:04;;;;;;;32.58;12.73;;;;;;;0.24;100.00;100413.78;4787542;29;20130;-51
2022/01/18 05:45:30;;;;;;;32.60;12.57;;;;;;;0.40;100.00;100397.00;4787558;29;20038;-53
2022/01/18 05:47:56;;;;;;;31.90;11.97;;;;;;;0.17;100.00;100416.91;4786095;30;20287;-50
2022/01/18 05:50:21;;;;;;;27.35;11.73;;;;;;;0.00;100.00;100420.66;4787388;29;20450;-54
2022/01/18 05:52:47;;;;;;;30.77;11.97;;;;;;;-0.07;100.00;100425.44;4787139;29;20043;-53
2022/01/18 05:55:13;;;;;;;27.50;11.63;;;;;;;-0.17;100.00;100426.97;4787305;29;20043;-48
2022/01/18 05:57:38;;;;;;;30.20;12.47;;;;;;;-0.25;100.00;100434.50;4787361;30;20053;-52
2022/01/18 06:00:08;;;;;;;33.63;12.37;;;;;;;-0.39;100.00;100437.13;4787397;29;20031;-52
2022/01/18 06:07:45;;;;;;;27.95;11.93;;;;;;;-0.38;100.00;100429.16;4786126;30;20030;-55
2022/01/18 06:10:10;;;;;;;35.20;12.47;;;;;;;-0.34;100.00;100445.56;4786048;30;20478;-53
2022/01/18 06:12:36;;;;;;;29.90;12.63;;;;;;;-0.43;100.00;100454.84;4786909;29;20107;-53
2022/01/18 06:15:02;;;;;;;29.63;11.80;;;;;;;-0.55;100.00;100460.84;4785593;30;20047;-52
2022/01/18 06:17:28;;;;;;;33.63;12.88;;;;;;;-0.49;100.00;100471.00;4786705;29;20057;-54
2022/01/18 06:19:54;;;;;;;35.27;12.73;;;;;;;-0.56;100.00;100472.28;4786879;29;20039;-52
2022/01/18 06:22:19;;;;;;;33.03;12.60;;;;;;;-0.66;100.00;100486.06;4787033;29;20035;-50
2022/01/18 06:24:45;;;;;;;32.23;12.07;;;;;;;-0.66;100.00;100484.28;4786876;29;20031;-54
2022/01/18 06:27:11;;;;;;;31.83;12.97;;;;;;;-0.74;100.00;100495.25;4786871;29;20039;-53
2022/01/18 06:29:37;;;;;;;33.33;12.77;;;;;;;-0.75;100.00;100490.94;4786315;29;20031;-53
2022/01/18 06:32:06;;;;;;;39.80;12.15;;;;;;;-0.77;100.00;100495.44;4786421;29;20047;-53
2022/01/18 06:34:32;;;;;;;38.22;12.93;;;;;;;-0.74;100.00;100497.88;4786302;29;20035;-53
2022/01/18 06:36:57;;;;;;;38.23;12.73;;;;;;;-0.68;100.00;100498.44;4786367;29;20039;-54
2022/01/18 06:39:23;;;;;;;35.93;14.07;;;;;;;-0.64;100.00;100495.56;4786524;30;20035;-55
2022/01/18 06:41:48;;;;;;;37.07;13.53;;;;;;;-0.65;100.00;100493.00;4786620;29;20084;-52
2022/01/18 06:44:14;;;;;;;36.47;13.43;;;;;;;-0.63;100.00;100486.75;4783182;29;20498;-52
2022/01/18 06:46:41;;;;;;;38.43;12.70;;;;;;;-0.59;100.00;100498.75;4782402;29;20138;-54
2022/01/18 06:49:06;;;;;;;41.83;14.50;;;;;;;-0.51;100.00;100495.66;4786022;29;20486;-49
2022/01/18 06:51:33;;;;;;;36.73;14.57;;;;;;;-0.45;100.00;100508.41;4786465;29;20046;-51
2022/01/18 06:53:58;;;;;;;36.42;13.80;;;;;;;-0.55;100.00;100518.63;4786205;29;20059;-53
2022/01/18 06:56:26;;;;;;;38.27;14.00;;;;;;;-0.55;100.00;100517.78;4786059;30;20043;-53
2022/01/18 06:58:53;;;;;;;34.10;13.77;;;;;;;-0.41;100.00;100504.66;4786338;29;20096;-51
2022/01/18 07:01:18;;;;;;;34.85;14.93;;;;;;;-0.41;100.00;100505.50;4786076;29;20832;-52
2022/01/18 07:03:44;;;;;;;44.07;17.63;;;;;;;-0.40;100.00;100503.72;4786202;29;20110;-49
2022/01/18 07:06:09;;;;;;;47.07;16.30;;;;;;;-0.31;100.00;100507.56;4786104;30;20027;-51
2022/01/18 07:08:35;;;;;;;40.53;15.07;;;;;;;-0.39;100.00;100515.91;4786089;29;20482;-53
2022/01/18 07:11:01;;;;;;;44.67;17.63;;;;;;;-0.36;100.00;100523.63;4786024;29;20039;-48
2022/01/18 07:13:27;;;;;;;41.67;15.75;;;;;;;-0.27;100.00;100533.56;4785971;29;20092;-53
2022/01/18 07:15:52;;;;;;;37.70;14.53;;;;;;;-0.22;100.00;100530.63;4786126;29;20035;-53
2022/01/18 07:18:18;;;;;;;37.93;16.20;;;;;;;-0.14;100.00;100526.63;4783622;29;20389;-54
2022/01/18 07:20:45;;;;;;;39.27;16.27;;;;;;;-0.20;100.00;100532.22;4786124;29;20382;-57
2022/01/18 07:23:14;;;;;;;42.80;18.35;;;;;;;-0.23;100.00;100528.97;4786045;29;20058;-53
2022/01/18 07:25:43;;;;;;;44.78;17.80;;;;;;;-0.16;100.00;100532.91;4785961;29;20430;-53
2022/01/18 07:28:14;;;;;;;38.72;17.23;;;;;;;-0.16;100.00;100541.63;4785851;29;20032;-57
2022/01/18 07:30:40;;;;;;;47.97;21.20;;;;;;;-0.24;100.00;100553.53;4785841;29;20039;-54
2022/01/18 07:33:06;;;;;;;45.22;18.63;;;;;;;-0.20;100.00;100548.00;4785983;29;20035;-52
2022/01/18 07:35:34;;;;;;;39.70;19.53;;;;;;;-0.22;100.00;100546.38;4784601;29;20054;-54
2022/01/18 07:38:04;;;;;;;44.85;17.00;;;;;;;-0.32;100.00;100550.53;4785806;29;20031;-52
2022/01/18 07:40:31;;;;;;;38.83;17.10;;;;;;;-0.23;100.00;100550.78;4784542;29;20099;-53
2022/01/18 07:43:00;;;;;;;38.70;16.33;;;;;;;-0.23;100.00;100560.50;4785528;29;20074;-53
2022/01/18 07:45:25;;;;;;;40.83;17.88;;;;;;;-0.17;100.00;100576.72;4785606;29;20046;-49
2022/01/18 07:47:51;;;;;;;44.20;17.23;;;;;;;-0.07;100.00;100582.25;4784443;29;20035;-51
2022/01/18 07:50:20;;;;;;;41.60;17.83;;;;;;;0.08;100.00;100586.56;4786117;29;20042;-54
2022/01/18 07:52:45;;;;;;;44.92;20.13;;;;;;;0.25;100.00;100588.13;4803484;29;20382;-53
2022/01/18 07:55:11;;;;;;;46.97;20.03;;;;;;;0.40;100.00;100586.34;4802617;29;20092;-48
2022/01/18 07:57:41;;;;;;;41.17;19.30;;;;;;;0.43;100.00;100583.53;4802350;29;20090;-54
2022/01/18 08:00:13;;;;;;;43.93;21.33;;;;;;;0.86;100.00;100577.19;4787842;29;20290;-54
2022/01/18 08:02:39;;;;;;;44.00;21.93;;;;;;;0.95;100.00;100579.22;4785523;29;20272;-56
2022/01/18 08:05:05;;;;;;;45.27;18.63;;;;;;;1.09;100.00;100584.44;4785713;29;20714;-56
2022/01/18 08:07:31;;;;;;;35.77;18.80;;;;;;;1.21;100.00;100574.88;4785462;29;20034;-53
2022/01/18 08:09:56;;;;;;;44.80;23.03;;;;;;;1.29;100.00;100572.56;4788187;29;20279;-53
2022/01/18 08:12:23;;;;;;;40.57;21.03;;;;;;;1.58;100.00;100562.72;4788780;29;20479;-55
2022/01/18 08:14:50;;;;;;;33.13;18.57;;;;;;;1.44;100.00;100563.66;4789245;29;20039;-54
2022/01/18 08:17:16;;;;;;;35.70;16.63;;;;;;;1.66;100.00;100567.44;4789155;29;20275;-54
2022/01/18 08:19:41;;;;;;;28.73;15.60;;;;;;;1.79;100.00;100569.16;4787729;29;20763;-53
2022/01/18 08:22:08;;;;;;;29.27;15.93;;;;;;;1.58;100.00;100565.34;4787134;29;20545;-56
2022/01/18 08:24:35;;;;;;;30.27;15.83;;;;;;;2.24;100.00;100561.59;4788708;29;20027;-56
2022/01/18 08:27:00;;;;;;;28.80;14.00;;;;;;;2.45;100.00;100565.34;4788781;29;20286;-55
2022/01/18 08:29:26;;;;;;;24.00;13.23;;;;;;;2.14;100.00;100571.97;4788621;30;20287;-53
2022/01/18 08:31:51;;;;;;;19.63;11.03;;;;;;;2.37;100.00;100567.69;4788753;29;20031;-54
2022/01/18 08:34:17;;;;;;;21.27;11.00;;;;;;;2.70;100.00;100572.34;4788471;29;20035;-51
2022/01/18 08:36:43;;;;;;;22.33;12.20;;;;;;;2.73;100.00;100574.75;4787398;30;20397;-53
2022/01/18 08:39:08;;;;;;;19.67;9.90;;;;;;;2.85;100.00;100570.38;4788630;29;20031;-54
2022/01/18 08:41:36;;;;;;;19.30;8.50;;;;;;;2.90;100.00;100566.44;4788488;29;20035;-53
2022/01/18 08:44:01;;;;;;;16.07;9.60;;;;;;;2.75;100.00;100570.22;4806160;29;20042;-51
2022/01/18 08:46:28;;;;;;;14.70;8.63;;;;;;;2.89;100.00;100570.03;4806412;29;20271;-54
2022/01/18 08:48:54;;;;;;;18.77;9.17;;;;;;;2.97;100.00;100581.84;4806052;29;20074;-53
2022/01/18 08:51:19;;;;;;;15.40;8.60;;;;;;;2.79;100.00;100584.00;4797417;29;20307;-53
2022/01/18 08:53:50;;;;;;;19.90;8.30;;;;;;;2.56;100.00;100575.13;4786745;29;20182;-55
2022/01/18 08:56:19;;;;;;;16.93;7.83;;;;;;;3.04;100.00;100561.94;4788209;30;20112;-53
2022/01/18 08:58:46;;;;;;;17.20;7.87;;;;;;;3.30;100.00;100552.91;4788120;29;20753;-52
2022/01/18 09:01:12;;;;;;;20.70;8.60;;;;;;;3.43;100.00;100566.88;4787408;29;20361;-55
2022/01/18 09:03:38;;;;;;;16.63;7.73;;;;;;;3.49;100.00;100568.22;4788085;29;20371;-55
2022/01/18 09:06:04;;;;;;;14.57;7.40;;;;;;;3.34;100.00;100570.22;4788004;29;20031;-54
2022/01/18 09:08:30;;;;;;;16.97;8.53;;;;;;;3.40;100.00;100566.28;4788006;29;20042;-54
2022/01/18 09:10:56;;;;;;;15.03;7.80;;;;;;;3.53;100.00;100575.81;4787107;29;20275;-51
2022/01/18 09:13:22;;;;;;;19.90;8.03;;;;;;;3.73;100.00;100578.72;4788031;29;20776;-54
2022/01/18 09:15:48;;;;;;;19.23;6.63;;;;;;;3.64;100.00;100580.28;4787960;29;20031;-51
2022/01/18 09:18:14;;;;;;;16.63;7.23;;;;;;;3.63;100.00;100587.34;4787934;29;20814;-55
2022/01/18 09:20:39;;;;;;;15.77;6.60;;;;;;;3.54;100.00;100585.41;4787556;29;20271;-53
2022/01/18 09:23:05;;;;;;;13.30;5.63;;;;;;;3.54;100.00;100581.94;4785533;29;20118;-52
2022/01/18 09:25:32;;;;;;;18.90;6.37;;;;;;;3.70;100.00;100584.22;4787473;29;20478;-52
2022/01/18 09:27:58;;;;;;;19.17;5.73;;;;;;;3.75;100.00;100588.22;4786422;30;20288;-53
2022/01/18 09:30:26;;;;;;;18.07;6.30;;;;;;;3.86;100.00;100605.91;4787655;29;20320;-54
2022/01/18 09:32:53;;;;;;;12.47;4.70;;;;;;;3.70;100.00;100608.03;4787668;29;20631;-51
2022/01/18 09:35:20;;;;;;;13.43;4.90;;;;;;;3.81;100.00;100605.41;4787670;29;20275;-55
2022/01/18 09:37:46;;;;;;;12.57;4.63;;;;;;;3.63;100.00;100603.22;4787489;29;20278;-53
2022/01/18 09:40:15;;;;;;;14.60;4.60;;;;;;;3.64;100.00;100609.34;4787551;29;20634;-51
2022/01/18 09:42:43;;;;;;;14.07;4.83;;;;;;;3.54;100.00;100611.84;4798221;29;20096;-55
2022/01/18 09:45:13;;;;;;;13.70;5.20;;;;;;;3.74;100.00;100604.19;4805705;29;20275;-55
2022/01/18 09:47:41;;;;;;;17.00;5.07;;;;;;;3.78;100.00;100608.31;4805291;29;20274;-52
2022/01/18 09:50:09;;;;;;;12.50;4.57;;;;;;;3.78;100.00;100605.66;4805308;29;20675;-52
2022/01/18 09:52:35;;;;;;;15.93;5.33;;;;;;;3.92;100.00;100608.09;4805521;29;20359;-56
2022/01/18 09:55:03;;;;;;;14.43;5.03;;;;;;;4.21;100.00;100598.72;4788718;29;20372;-57
2022/01/18 09:57:30;;;;;;;16.27;4.80;;;;;;;4.74;100.00;100602.38;4787098;29;20271;-53
2022/01/18 09:59:56;;;;;;;12.30;4.90;;;;;;;5.23;100.00;100606.34;4787123;29;20286;-51
2022/01/18 10:02:22;;;;;;;14.10;4.80;;;;;;;5.39;100.00;100600.63;4787070;29;20279;-53
2022/01/18 10:04:49;;;;;;;11.27;4.10;;;;;;;6.14;100.00;100603.06;4787096;29;20300;-57
2022/01/18 10:07:15;;;;;;;12.93;4.10;;;;;;;7.14;100.00;100601.28;4794249;29;20034;-55
2022/01/18 10:09:40;;;;;;;11.23;4.00;;;;;;;5.81;100.00;100606.75;4803861;29;20367;-56
2022/01/18 10:12:12;;;;;;;14.83;3.87;;;;;;;7.72;100.00;100604.75;4805019;29;20031;-55
2022/01/18 10:14:51;;;;;;;12.37;4.20;;;;;;;6.53;100.00;100607.56;4804938;29;20027;-55
2022/01/18 10:17:37;;;;;;;12.20;4.17;;;;;;;6.46;100.00;100606.41;4804831;29;20022;-57
2022/01/18 10:20:08;;;;;;;9.70;3.80;;;;;;;6.25;100.00;100608.28;4804796;29;20038;-57
2022/01/18 10:22:43;;;;;;;13.37;4.47;;;;;;;5.30;100.00;100602.22;4804374;29;20026;-54
2022/01/18 10:25:16;;;;;;;13.50;4.80;;;;;;;4.94;100.00;100606.09;4799271;29;20031;-55
2022/01/18 10:27:42;;;;;;;11.63;4.47;;;;;;;4.94;100.00;100602.59;4785201;29;20035;-56
2022/01/18 10:30:14;;;;;;;15.13;5.10;;;;;;;4.83;100.00;100600.81;4785441;29;20042;-56
2022/01/18 10:32:42;;;;;;;12.67;4.43;;;;;;;4.28;100.00;100604.34;4786244;29;20043;-56
2022/01/18 10:35:09;;;;;;;13.17;4.73;;;;;;;4.11;100.00;100605.69;4785473;29;20287;-57
2022/01/18 10:37:41;;;;;;;12.13;4.50;;;;;;;4.18;100.00;100603.41;4786590;29;20412;-55
2022/01/18 10:40:16;;;;;;;11.57;4.70;;;;;;;3.98;100.00;100592.56;4786512;30;20267;-57
2022/01/18 10:42:48;;;;;;;13.67;5.10;;;;;;;4.03;100.00;100591.38;4786244;29;20276;-55
2022/01/18 10:45:31;;;;;;;12.77;4.07;;;;;;;4.07;100.00;100580.44;4800270;29;20286;-54
2022/01/18 10:48:15;;;;;;;14.73;4.30;;;;;;;4.24;100.00;100579.97;4804546;29;20876;-56
2022/01/18 10:50:43;;;;;;;10.30;3.97;;;;;;;3.96;100.00;100578.63;4804360;29;20050;-57
2022/01/18 10:53:17;;;;;;;10.83;3.67;;;;;;;4.26;100.00;100578.03;4804218;29;20803;-59
2022/01/18 10:55:44;;;;;;;10.77;4.30;;;;;;;4.38;100.00;100587.63;4804295;29;20343;-56
2022/01/18 10:58:15;;;;;;;10.53;3.67;;;;;;;4.08;100.00;100584.75;4785403;29;20276;-55
2022/01/18 11:00:41;;;;;;;15.43;4.27;;;;;;;3.95;100.00;100597.25;4786341;29;20336;-56
2022/01/18 11:03:07;;;;;;;12.53;3.57;;;;;;;4.29;100.00;100588.38;4785023;29;20287;-56
2022/01/18 11:05:35;;;;;;;12.43;3.70;;;;;;;4.44;100.00;100590.75;4786207;29;20050;-53
2022/01/18 11:08:04;;;;;;;12.60;3.40;;;;;;;4.46;100.00;100599.44;4786155;29;20023;-55
2022/01/18 11:10:41;;;;;;;13.10;3.20;;;;;;;4.54;100.00;100599.66;4786033;29;20271;-56
2022/01/18 11:13:11;;;;;;;10.47;3.00;;;;;;;4.21;100.00;100605.81;4785615;29;20618;-54
2022/01/18 11:15:42;;;;;;;8.90;3.30;;;;;;;4.65;100.00;100602.28;4786009;29;20275;-55
2022/01/18 11:18:24;;;;;;;11.20;2.70;;;;;;;4.29;100.00;100603.41;4786257;29;20809;-56
2022/01/18 11:20:50;;;;;;;6.73;2.60;;;;;;;4.42;100.00;100608.56;4786272;29;20275;-50
2022/01/18 11:23:17;;;;;;;13.33;3.10;;;;;;;4.35;100.00;100603.78;4786039;29;20772;-53
2022/01/18 11:25:44;;;;;;;11.43;3.07;;;;;;;4.26;100.00;100607.16;4785955;29;20047;-55
2022/01/18 11:28:11;;;;;;;10.43;2.97;;;;;;;4.25;100.00;100604.63;4784994;29;20291;-55
2022/01/18 11:30:42;;;;;;;12.00;3.07;;;;;;;4.08;100.00;100610.38;4784377;29;21145;-55
2022/01/18 11:33:11;;;;;;;9.07;2.93;;;;;;;4.24;100.00;100619.66;4785869;29;20278;-53
2022/01/18 11:36:04;;;;;;;15.73;3.40;;;;;;;5.78;100.00;100605.22;4785654;29;20303;-59
2022/01/18 11:38:57;;;;;;;10.43;3.00;;;;;;;5.40;100.00;100610.25;4784861;30;20754;-53
2022/01/18 11:41:28;;;;;;;8.75;2.67;;;;;;;4.50;100.00;100611.47;4785649;29;20353;-52
2022/01/18 11:43:56;;;;;;;10.77;2.90;;;;;;;4.09;100.00;100617.34;4788601;29;20039;-55
2022/01/18 11:46:34;;;;;;;12.70;2.90;;;;;;;4.03;100.00;100616.03;4789433;29;20646;-57
2022/01/18 11:49:06;;;;;;;11.50;3.13;;;;;;;4.03;100.00;100621.31;4788129;30;20374;-51
2022/01/18 11:51:48;;;;;;;11.20;3.23;;;;;;;3.79;100.00;100615.28;4789653;29;20301;-55
2022/01/18 11:54:27;;;;;;;9.07;3.03;;;;;;;4.36;100.00;100608.09;4789008;29;20310;-60
2022/01/18 11:56:54;;;;;;;8.70;3.10;;;;;;;3.70;100.00;100608.03;4789441;29;20275;-57
2022/01/18 11:59:22;;;;;;;10.20;2.93;;;;;;;3.97;100.00;100608.56;4788396;29;20303;-57
2022/01/18 12:01:58;;;;;;;10.00;3.23;;;;;;;4.27;100.00;100610.59;4787670;29;20646;-58
2022/01/18 12:04:48;;;;;;;10.90;3.20;;;;;;;4.12;100.00;100606.53;4789288;29;20666;-59
2022/01/18 12:07:38;;;;;;;8.27;2.63;;;;;;;4.38;100.00;100603.50;4789009;29;20396;-59
2022/01/18 12:10:30;;;;;;;14.40;3.40;;;;;;;4.50;100.00;100604.34;4788960;29;20317;-57
2022/01/18 12:12:58;;;;;;;10.43;3.43;;;;;;;3.79;100.00;100613.47;4786478;29;20326;-59
2022/01/18 12:15:23;;;;;;;10.67;3.27;;;;;;;3.96;100.00;100623.59;4788971;29;20298;-59
2022/01/18 12:18:11;;;;;;;10.97;3.37;;;;;;;3.81;100.00;100615.97;4788421;30;20275;-58
2022/01/18 12:20:43;;;;;;;9.20;3.20;;;;;;;3.79;100.00;100626.69;4788839;29;20050;-58
2022/01/18 12:23:24;;;;;;;15.50;3.50;;;;;;;3.92;100.00;100629.25;4789055;29;20734;-58
2022/01/18 12:26:00;;;;;;;9.73;2.83;;;;;;;4.02;100.00;100624.94;4788772;29;20275;-58
2022/01/18 12:31:52;;;;;;;10.37;3.10;;;;;;;3.91;100.00;100617.81;4786705;30;20619;-58
2022/01/18 12:34:30;;;;;;;8.20;2.90;;;;;;;3.91;100.00;100624.91;4788454;29;20263;-57
2022/01/18 12:36:56;;;;;;;12.30;3.77;;;;;;;4.08;100.00;100621.78;4788710;29;20271;-56
2022/01/18 12:39:22;;;;;;;7.80;3.00;;;;;;;3.93;100.00;100612.38;4787287;30;20769;-59